createdAt,value
2022-11-17T08:45:48.886Z,5.80
2022-11-17T08:48:15.948Z,7.38
2022-11-17T08:50:42.809Z,7.30
2022-11-17T08:53:14.258Z,5.57
2022-11-17T08:55:41.620Z,4.40
2022-11-17T08:58:09.665Z,5.18
2022-11-17T09:00:36.576Z,3.13
2022-11-17T09:03:10.613Z,5.07
2022-11-17T09:05:44.031Z,5.18
2022-11-17T09:08:43.393Z,3.10
2022-11-17T09:10:58.700Z,4.55
2022-11-17T09:13:25.624Z,7.20
2022-11-17T09:15:52.289Z,5.15
2022-11-17T09:18:19.356Z,3.72
2022-11-17T09:20:46.437Z,5.95
2022-11-17T09:23:13.410Z,4.70
2022-11-17T09:25:40.156Z,7.13
2022-11-17T09:28:07.123Z,3.80
2022-11-17T09:30:33.993Z,7.00
2022-11-17T09:33:01.136Z,5.95
2022-11-17T09:35:27.783Z,5.28
2022-11-17T09:37:59.664Z,6.93
2022-11-17T09:40:26.457Z,5.25
2022-11-17T09:42:53.597Z,5.93
2022-11-17T09:45:27.950Z,10.90
2022-11-17T09:48:38.820Z,6.97
2022-11-17T09:50:57.055Z,4.13
2022-11-17T09:53:40.486Z,5.57
2022-11-17T09:56:10.051Z,4.97
2022-11-17T09:58:50.244Z,8.07
2022-11-17T10:01:19.570Z,6.00
2022-11-17T10:03:48.747Z,7.63
2022-11-17T10:06:21.505Z,5.00
2022-11-17T10:11:37.820Z,5.45
2022-11-17T10:14:17.015Z,3.85
2022-11-17T10:16:55.054Z,4.50
2022-11-17T10:19:21.996Z,8.93
2022-11-17T10:22:01.242Z,4.35
2022-11-17T10:24:42.418Z,5.28
2022-11-17T10:27:17.817Z,5.07
2022-11-17T10:29:58.080Z,4.90
2022-11-17T10:32:25.757Z,6.15
2022-11-17T10:34:54.155Z,4.88
2022-11-17T10:37:28.717Z,4.68
2022-11-17T10:40:23.651Z,5.00
2022-11-17T10:43:02.993Z,6.65
2022-11-17T10:45:30.165Z,6.32
2022-11-17T10:48:30.134Z,5.82
2022-11-17T10:51:02.672Z,5.07
2022-11-17T10:53:34.978Z,6.63
2022-11-17T10:56:05.284Z,4.80
2022-11-17T10:58:52.653Z,4.43
2022-11-17T11:01:32.001Z,4.93
2022-11-17T11:03:58.761Z,4.43
2022-11-17T11:06:29.575Z,6.38
2022-11-17T11:09:18.702Z,5.38
2022-11-17T11:11:49.847Z,6.82
2022-11-17T11:14:41.204Z,6.60
2022-11-17T11:17:17.894Z,5.47
2022-11-17T11:19:52.540Z,6.13
2022-11-17T11:23:00.712Z,6.88
2022-11-17T11:25:41.080Z,4.35
2022-11-17T11:28:52.807Z,7.13
2022-11-17T11:31:33.814Z,6.63
2022-11-17T11:34:22.076Z,30.42
2022-11-17T11:36:56.600Z,44.05
2022-11-17T11:40:01.621Z,24.00
2022-11-17T11:42:37.173Z,46.38
2022-11-17T11:45:21.667Z,51.63
2022-11-17T11:48:00.156Z,82.28
2022-11-17T11:50:31.933Z,106.55
2022-11-17T11:53:12.924Z,166.73
2022-11-17T11:55:41.787Z,84.60
2022-11-17T11:58:24.697Z,80.32
2022-11-17T12:03:49.988Z,43.25
2022-11-17T12:06:40.154Z,21.17
2022-11-17T12:09:28.634Z,45.30
2022-11-17T12:12:03.073Z,33.03
2022-11-17T12:14:35.332Z,34.63
2022-11-17T12:17:02.196Z,14.93
2022-11-17T12:19:44.358Z,20.98
2022-11-17T12:22:24.046Z,27.08
2022-11-17T12:24:57.444Z,15.82
2022-11-17T12:27:33.399Z,16.55
2022-11-17T12:30:05.723Z,14.98
2022-11-17T12:32:44.836Z,11.07
2022-11-17T12:35:41.429Z,11.25
2022-11-17T12:38:14.215Z,19.20
2022-11-17T12:40:51.049Z,10.07
2022-11-17T12:43:28.028Z,16.63
2022-11-17T12:46:19.089Z,33.65
2022-11-17T12:49:04.347Z,20.50
2022-11-17T12:51:50.717Z,18.33
2022-11-17T12:54:25.146Z,14.93
2022-11-17T12:56:51.788Z,17.38
2022-11-17T12:59:43.689Z,25.20
2022-11-17T13:02:47.602Z,14.15
2022-11-17T13:05:20.808Z,20.67
2022-11-17T13:07:47.909Z,25.02
2022-11-17T13:10:29.590Z,21.40
2022-11-17T13:13:18.528Z,7.25
2022-11-17T13:15:49.608Z,25.63
2022-11-17T13:18:36.205Z,32.28
2022-11-17T13:21:04.124Z,20.60
2022-11-17T13:23:32.705Z,14.02
2022-11-17T13:26:21.019Z,15.40
2022-11-17T13:28:48.999Z,10.55
2022-11-17T13:31:21.374Z,7.25
2022-11-17T13:33:59.576Z,7.53
2022-11-17T13:36:27.326Z,6.35
2022-11-17T13:38:57.353Z,7.35
2022-11-17T13:41:25.791Z,6.82
2022-11-17T13:43:53.979Z,8.75
2022-11-17T13:46:21.365Z,8.80
2022-11-17T13:48:50.032Z,7.55
2022-11-17T13:51:19.784Z,10.00
2022-11-17T13:53:55.824Z,7.32
2022-11-17T13:56:43.030Z,35.10
2022-11-17T13:59:18.507Z,30.48
2022-11-17T14:01:45.610Z,12.75
2022-11-17T14:04:20.092Z,16.42
2022-11-17T14:06:57.030Z,13.45
2022-11-17T14:09:25.256Z,13.55
2022-11-17T14:11:52.910Z,10.13
2022-11-17T14:14:28.137Z,10.32
2022-11-17T14:16:55.236Z,12.50
2022-11-17T14:19:26.735Z,8.38
2022-11-17T14:22:27.665Z,8.95
2022-11-17T14:24:57.446Z,11.23
2022-11-17T14:27:27.447Z,12.35
2022-11-17T14:29:54.087Z,13.63
2022-11-17T14:32:21.349Z,12.95
